Pinos Altos, New Mexico
Current Conditions -  °F | °C
As of 7:15 AM on Wednesday 26 Nov 2014 (Local Time) from KSVC Reporting Station
Clear Clear  
Wind Chill: 23°   Ceiling: Unl
Heat Index: 32°   Visibility: 10mi
Dew Point: 14°   Wind: 12mph
Humidity: 47%   Direction: 350°N
Pressure: 30.37"   Gusts: NA
Location:  32.87°N, 108.22°W
Report Text: KSVC 261415Z AUTO 35010KT 10SM CLR 00/M10 A3037 RMK AO2
Loading
Personal Weather Stations






























Interactive Weather Map New forecast layout! Learn more

10-Day Weather Forecast

Advertisements
Track Severe Weather on mobile